sensor_id;sensor_type;location;lat;lon;timestamp;P1;durP1;ratioP1;P2;durP2;ratioP2
18376;SDS011;9315;52.624;13.544;2024-02-21T00:01:53;22.17;;;6.67;;
18376;SDS011;9315;52.624;13.544;2024-02-21T00:04:20;29.43;;;7.40;;
18376;SDS011;9315;52.624;13.544;2024-02-21T00:06:48;32.17;;;7.23;;
18376;SDS011;9315;52.624;13.544;2024-02-21T00:09:16;31.13;;;7.40;;
18376;SDS011;9315;52.624;13.544;2024-02-21T00:11:45;33.40;;;7.73;;
18376;SDS011;9315;52.624;13.544;2024-02-21T00:14:12;35.43;;;7.17;;
18376;SDS011;9315;52.624;13.544;2024-02-21T00:16:40;25.67;;;7.00;;
18376;SDS011;9315;52.624;13.544;2024-02-21T00:19:07;32.83;;;7.37;;
18376;SDS011;9315;52.624;13.544;2024-02-21T00:21:35;26.20;;;6.30;;
18376;SDS011;9315;52.624;13.544;2024-02-21T00:24:05;30.60;;;7.13;;
18376;SDS011;9315;52.624;13.544;2024-02-21T00:26:33;26.07;;;6.30;;
18376;SDS011;9315;52.624;13.544;2024-02-21T00:29:00;33.67;;;6.70;;
18376;SDS011;9315;52.624;13.544;2024-02-21T00:31:31;25.37;;;5.60;;
18376;SDS011;9315;52.624;13.544;2024-02-21T00:33:59;18.60;;;5.30;;
18376;SDS011;9315;52.624;13.544;2024-02-21T00:36:27;29.83;;;5.47;;
18376;SDS011;9315;52.624;13.544;2024-02-21T00:38:54;31.17;;;6.63;;
18376;SDS011;9315;52.624;13.544;2024-02-21T00:41:21;25.40;;;5.57;;
18376;SDS011;9315;52.624;13.544;2024-02-21T00:43:49;26.83;;;6.17;;
18376;SDS011;9315;52.624;13.544;2024-02-21T00:46:17;29.40;;;6.10;;
18376;SDS011;9315;52.624;13.544;2024-02-21T00:48:44;29.93;;;5.37;;
18376;SDS011;9315;52.624;13.544;2024-02-21T00:51:12;23.57;;;6.00;;
18376;SDS011;9315;52.624;13.544;2024-02-21T00:53:40;23.83;;;5.67;;
18376;SDS011;9315;52.624;13.544;2024-02-21T00:56:08;24.97;;;5.83;;
18376;SDS011;9315;52.624;13.544;2024-02-21T00:58:36;25.73;;;5.70;;
18376;SDS011;9315;52.624;13.544;2024-02-21T01:01:03;27.60;;;6.37;;
18376;SDS011;9315;52.624;13.544;2024-02-21T01:03:31;29.83;;;6.27;;
18376;SDS011;9315;52.624;13.544;2024-02-21T01:05:58;22.33;;;5.50;;
18376;SDS011;9315;52.624;13.544;2024-02-21T01:08:26;23.87;;;5.47;;
18376;SDS011;9315;52.624;13.544;2024-02-21T01:10:55;25.80;;;5.30;;
18376;SDS011;9315;52.624;13.544;2024-02-21T01:13:22;29.73;;;5.43;;
18376;SDS011;9315;52.624;13.544;2024-02-21T01:15:50;20.50;;;4.77;;
18376;SDS011;9315;52.624;13.544;2024-02-21T01:18:17;23.63;;;5.17;;
18376;SDS011;9315;52.624;13.544;2024-02-21T01:20:45;25.77;;;5.43;;
18376;SDS011;9315;52.624;13.544;2024-02-21T01:23:12;16.77;;;4.90;;
18376;SDS011;9315;52.624;13.544;2024-02-21T01:25:40;24.73;;;5.07;;
18376;SDS011;9315;52.624;13.544;2024-02-21T01:28:07;24.90;;;5.50;;
18376;SDS011;9315;52.624;13.544;2024-02-21T01:30:35;26.00;;;4.90;;
18376;SDS011;9315;52.624;13.544;2024-02-21T01:33:02;20.10;;;4.73;;
18376;SDS011;9315;52.624;13.544;2024-02-21T01:35:30;17.27;;;4.60;;
18376;SDS011;9315;52.624;13.544;2024-02-21T01:37:58;25.27;;;5.43;;
18376;SDS011;9315;52.624;13.544;2024-02-21T01:40:25;30.10;;;5.00;;
18376;SDS011;9315;52.624;13.544;2024-02-21T01:42:55;26.53;;;4.40;;
18376;SDS011;9315;52.624;13.544;2024-02-21T01:45:22;20.03;;;5.10;;
18376;SDS011;9315;52.624;13.544;2024-02-21T01:47:50;21.37;;;4.80;;
18376;SDS011;9315;52.624;13.544;2024-02-21T01:50:19;18.87;;;4.63;;
18376;SDS011;9315;52.624;13.544;2024-02-21T01:52:48;17.17;;;5.03;;
18376;SDS011;9315;52.624;13.544;2024-02-21T01:55:18;24.33;;;4.53;;
18376;SDS011;9315;52.624;13.544;2024-02-21T01:57:46;18.43;;;4.63;;
18376;SDS011;9315;52.624;13.544;2024-02-21T02:00:14;21.63;;;4.77;;
18376;SDS011;9315;52.624;13.544;2024-02-21T02:02:42;20.00;;;5.13;;
18376;SDS011;9315;52.624;13.544;2024-02-21T02:05:11;18.70;;;4.47;;
18376;SDS011;9315;52.624;13.544;2024-02-21T02:07:38;24.70;;;4.67;;
18376;SDS011;9315;52.624;13.544;2024-02-21T02:10:06;21.27;;;4.60;;
18376;SDS011;9315;52.624;13.544;2024-02-21T02:12:36;19.10;;;4.33;;
18376;SDS011;9315;52.624;13.544;2024-02-21T02:15:04;21.83;;;4.57;;
18376;SDS011;9315;52.624;13.544;2024-02-21T02:17:32;20.80;;;4.50;;
18376;SDS011;9315;52.624;13.544;2024-02-21T02:19:59;18.83;;;4.50;;
18376;SDS011;9315;52.624;13.544;2024-02-21T02:22:30;20.10;;;4.23;;
18376;SDS011;9315;52.624;13.544;2024-02-21T02:25:02;19.40;;;5.00;;
18376;SDS011;9315;52.624;13.544;2024-02-21T02:27:31;19.00;;;4.47;;
18376;SDS011;9315;52.624;13.544;2024-02-21T02:29:58;18.53;;;4.17;;
18376;SDS011;9315;52.624;13.544;2024-02-21T02:32:26;18.23;;;4.07;;
18376;SDS011;9315;52.624;13.544;2024-02-21T02:34:53;21.13;;;4.57;;
18376;SDS011;9315;52.624;13.544;2024-02-21T02:37:22;19.87;;;5.00;;
18376;SDS011;9315;52.624;13.544;2024-02-21T02:39:49;25.50;;;4.73;;
18376;SDS011;9315;52.624;13.544;2024-02-21T02:42:17;20.77;;;4.27;;
18376;SDS011;9315;52.624;13.544;2024-02-21T02:44:45;25.13;;;4.63;;
18376;SDS011;9315;52.624;13.544;2024-02-21T02:47:12;25.00;;;5.23;;
18376;SDS011;9315;52.624;13.544;2024-02-21T02:49:40;17.87;;;4.80;;
18376;SDS011;9315;52.624;13.544;2024-02-21T02:52:07;25.13;;;5.10;;
18376;SDS011;9315;52.624;13.544;2024-02-21T02:54:35;22.87;;;5.80;;
18376;SDS011;9315;52.624;13.544;2024-02-21T02:57:02;29.97;;;5.43;;
18376;SDS011;9315;52.624;13.544;2024-02-21T02:59:31;29.83;;;6.37;;
18376;SDS011;9315;52.624;13.544;2024-02-21T03:01:59;24.47;;;5.30;;
18376;SDS011;9315;52.624;13.544;2024-02-21T03:04:32;22.47;;;5.63;;
18376;SDS011;9315;52.624;13.544;2024-02-21T03:07:00;21.60;;;6.03;;
18376;SDS011;9315;52.624;13.544;2024-02-21T03:09:27;30.37;;;5.97;;
18376;SDS011;9315;52.624;13.544;2024-02-21T03:11:55;21.63;;;5.50;;
18376;SDS011;9315;52.624;13.544;2024-02-21T03:14:29;28.00;;;6.83;;
18376;SDS011;9315;52.624;13.544;2024-02-21T03:17:01;20.97;;;6.13;;
18376;SDS011;9315;52.624;13.544;2024-02-21T03:19:32;23.13;;;5.93;;
18376;SDS011;9315;52.624;13.544;2024-02-21T03:21:59;30.97;;;7.87;;
18376;SDS011;9315;52.624;13.544;2024-02-21T03:24:30;31.67;;;6.10;;
18376;SDS011;9315;52.624;13.544;2024-02-21T03:27:00;20.00;;;6.37;;
18376;SDS011;9315;52.624;13.544;2024-02-21T03:29:33;28.13;;;7.53;;
18376;SDS011;9315;52.624;13.544;2024-02-21T03:34:54;25.57;;;7.47;;
18376;SDS011;9315;52.624;13.544;2024-02-21T03:37:22;27.03;;;7.20;;
18376;SDS011;9315;52.624;13.544;2024-02-21T03:39:52;31.17;;;7.60;;
18376;SDS011;9315;52.624;13.544;2024-02-21T03:42:23;29.13;;;7.93;;
18376;SDS011;9315;52.624;13.544;2024-02-21T03:44:50;29.97;;;7.97;;
18376;SDS011;9315;52.624;13.544;2024-02-21T03:47:18;32.17;;;10.00;;
18376;SDS011;9315;52.624;13.544;2024-02-21T03:49:45;26.10;;;8.50;;
18376;SDS011;9315;52.624;13.544;2024-02-21T03:52:13;27.03;;;9.07;;
18376;SDS011;9315;52.624;13.544;2024-02-21T03:54:40;30.00;;;10.40;;
18376;SDS011;9315;52.624;13.544;2024-02-21T03:57:08;32.70;;;9.87;;
18376;SDS011;9315;52.624;13.544;2024-02-21T03:59:35;26.50;;;8.67;;
18376;SDS011;9315;52.624;13.544;2024-02-21T04:02:05;27.47;;;8.23;;
18376;SDS011;9315;52.624;13.544;2024-02-21T04:04:36;30.03;;;9.43;;
18376;SDS011;9315;52.624;13.544;2024-02-21T04:07:04;26.83;;;9.13;;
18376;SDS011;9315;52.624;13.544;2024-02-21T04:09:35;21.33;;;7.60;;
18376;SDS011;9315;52.624;13.544;2024-02-21T04:12:02;35.47;;;9.10;;
18376;SDS011;9315;52.624;13.544;2024-02-21T04:14:30;36.93;;;9.87;;
18376;SDS011;9315;52.624;13.544;2024-02-21T04:16:58;38.70;;;9.87;;
18376;SDS011;9315;52.624;13.544;2024-02-21T04:19:25;32.47;;;8.67;;
18376;SDS011;9315;52.624;13.544;2024-02-21T04:21:55;34.03;;;10.03;;
18376;SDS011;9315;52.624;13.544;2024-02-21T04:24:22;27.33;;;10.23;;
18376;SDS011;9315;52.624;13.544;2024-02-21T04:26:49;38.87;;;11.80;;
18376;SDS011;9315;52.624;13.544;2024-02-21T04:29:17;40.13;;;11.73;;
18376;SDS011;9315;52.624;13.544;2024-02-21T04:31:44;35.97;;;10.47;;
18376;SDS011;9315;52.624;13.544;2024-02-21T04:34:12;38.37;;;9.47;;
18376;SDS011;9315;52.624;13.544;2024-02-21T04:36:40;29.73;;;9.40;;
18376;SDS011;9315;52.624;13.544;2024-02-21T04:39:10;33.27;;;10.53;;
18376;SDS011;9315;52.624;13.544;2024-02-21T04:41:38;30.93;;;10.20;;
18376;SDS011;9315;52.624;13.544;2024-02-21T04:44:06;34.97;;;10.57;;
18376;SDS011;9315;52.624;13.544;2024-02-21T04:46:33;36.27;;;11.20;;
18376;SDS011;9315;52.624;13.544;2024-02-21T04:49:00;36.77;;;10.97;;
18376;SDS011;9315;52.624;13.544;2024-02-21T04:51:28;33.50;;;10.13;;
18376;SDS011;9315;52.624;13.544;2024-02-21T04:53:55;30.47;;;10.03;;
18376;SDS011;9315;52.624;13.544;2024-02-21T04:56:23;39.33;;;10.07;;
18376;SDS011;9315;52.624;13.544;2024-02-21T04:58:51;34.27;;;10.37;;
18376;SDS011;9315;52.624;13.544;2024-02-21T05:01:18;33.70;;;10.17;;
18376;SDS011;9315;52.624;13.544;2024-02-21T05:03:46;28.33;;;9.73;;
18376;SDS011;9315;52.624;13.544;2024-02-21T05:06:13;27.20;;;9.87;;
18376;SDS011;9315;52.624;13.544;2024-02-21T05:08:42;28.80;;;10.23;;
18376;SDS011;9315;52.624;13.544;2024-02-21T05:11:11;27.67;;;9.80;;
18376;SDS011;9315;52.624;13.544;2024-02-21T05:13:39;27.93;;;10.30;;
18376;SDS011;9315;52.624;13.544;2024-02-21T05:16:07;28.47;;;9.53;;
18376;SDS011;9315;52.624;13.544;2024-02-21T05:18:35;21.73;;;9.00;;
18376;SDS011;9315;52.624;13.544;2024-02-21T05:21:03;28.47;;;10.07;;
18376;SDS011;9315;52.624;13.544;2024-02-21T05:23:31;38.37;;;11.17;;
18376;SDS011;9315;52.624;13.544;2024-02-21T05:25:58;31.30;;;9.83;;
18376;SDS011;9315;52.624;13.544;2024-02-21T05:28:26;32.17;;;9.73;;
18376;SDS011;9315;52.624;13.544;2024-02-21T05:30:54;27.90;;;9.10;;
18376;SDS011;9315;52.624;13.544;2024-02-21T05:33:23;30.23;;;8.73;;
18376;SDS011;9315;52.624;13.544;2024-02-21T05:35:52;29.93;;;9.63;;
18376;SDS011;9315;52.624;13.544;2024-02-21T05:38:20;27.97;;;9.03;;
18376;SDS011;9315;52.624;13.544;2024-02-21T05:40:48;39.40;;;10.13;;
18376;SDS011;9315;52.624;13.544;2024-02-21T05:43:15;28.97;;;8.50;;
18376;SDS011;9315;52.624;13.544;2024-02-21T05:45:43;35.50;;;10.30;;
18376;SDS011;9315;52.624;13.544;2024-02-21T05:48:11;29.37;;;9.47;;
18376;SDS011;9315;52.624;13.544;2024-02-21T05:50:38;26.37;;;9.17;;
18376;SDS011;9315;52.624;13.544;2024-02-21T05:53:06;35.63;;;9.80;;
18376;SDS011;9315;52.624;13.544;2024-02-21T05:55:36;34.33;;;9.97;;
18376;SDS011;9315;52.624;13.544;2024-02-21T05:58:06;33.17;;;9.67;;
18376;SDS011;9315;52.624;13.544;2024-02-21T06:00:37;27.00;;;9.17;;
18376;SDS011;9315;52.624;13.544;2024-02-21T06:03:04;32.27;;;9.77;;
18376;SDS011;9315;52.624;13.544;2024-02-21T06:05:37;32.07;;;9.50;;
18376;SDS011;9315;52.624;13.544;2024-02-21T06:08:12;22.57;;;10.67;;
18376;SDS011;9315;52.624;13.544;2024-02-21T06:10:40;27.00;;;9.40;;
18376;SDS011;9315;52.624;13.544;2024-02-21T06:13:15;31.37;;;9.63;;
18376;SDS011;9315;52.624;13.544;2024-02-21T06:15:43;28.47;;;9.07;;
18376;SDS011;9315;52.624;13.544;2024-02-21T06:18:10;34.50;;;11.07;;
18376;SDS011;9315;52.624;13.544;2024-02-21T06:20:38;26.40;;;9.57;;
18376;SDS011;9315;52.624;13.544;2024-02-21T06:23:08;31.20;;;9.83;;
18376;SDS011;9315;52.624;13.544;2024-02-21T06:25:36;29.30;;;10.00;;
18376;SDS011;9315;52.624;13.544;2024-02-21T06:28:03;29.97;;;9.53;;
18376;SDS011;9315;52.624;13.544;2024-02-21T06:30:35;28.30;;;9.70;;
18376;SDS011;9315;52.624;13.544;2024-02-21T06:33:04;33.77;;;8.73;;
18376;SDS011;9315;52.624;13.544;2024-02-21T06:35:31;23.10;;;8.87;;
18376;SDS011;9315;52.624;13.544;2024-02-21T06:37:59;29.97;;;9.57;;
18376;SDS011;9315;52.624;13.544;2024-02-21T06:40:28;23.90;;;8.63;;
18376;SDS011;9315;52.624;13.544;2024-02-21T06:43:07;29.53;;;9.37;;
18376;SDS011;9315;52.624;13.544;2024-02-21T06:45:34;26.97;;;9.93;;
18376;SDS011;9315;52.624;13.544;2024-02-21T06:48:03;32.67;;;8.63;;
18376;SDS011;9315;52.624;13.544;2024-02-21T06:50:32;27.83;;;8.60;;
18376;SDS011;9315;52.624;13.544;2024-02-21T06:53:02;26.13;;;8.70;;
18376;SDS011;9315;52.624;13.544;2024-02-21T06:55:30;24.87;;;9.70;;
18376;SDS011;9315;52.624;13.544;2024-02-21T06:58:02;30.63;;;9.63;;
18376;SDS011;9315;52.624;13.544;2024-02-21T07:00:30;22.70;;;9.03;;
18376;SDS011;9315;52.624;13.544;2024-02-21T07:02:57;22.43;;;9.67;;
18376;SDS011;9315;52.624;13.544;2024-02-21T07:05:25;23.33;;;9.53;;
18376;SDS011;9315;52.624;13.544;2024-02-21T07:07:53;25.97;;;9.53;;
18376;SDS011;9315;52.624;13.544;2024-02-21T07:10:21;23.97;;;9.10;;
18376;SDS011;9315;52.624;13.544;2024-02-21T07:12:49;26.23;;;9.83;;
18376;SDS011;9315;52.624;13.544;2024-02-21T07:15:18;29.43;;;9.90;;
18376;SDS011;9315;52.624;13.544;2024-02-21T07:17:46;25.77;;;9.03;;
18376;SDS011;9315;52.624;13.544;2024-02-21T07:20:14;27.87;;;9.73;;
18376;SDS011;9315;52.624;13.544;2024-02-21T07:22:41;23.80;;;9.30;;
18376;SDS011;9315;52.624;13.544;2024-02-21T07:25:09;28.07;;;9.40;;
18376;SDS011;9315;52.624;13.544;2024-02-21T07:27:36;23.03;;;9.30;;
18376;SDS011;9315;52.624;13.544;2024-02-21T07:30:06;18.00;;;7.40;;
18376;SDS011;9315;52.624;13.544;2024-02-21T07:32:36;25.37;;;9.90;;
18376;SDS011;9315;52.624;13.544;2024-02-21T07:35:03;22.30;;;8.97;;
18376;SDS011;9315;52.624;13.544;2024-02-21T07:37:39;30.07;;;9.23;;
18376;SDS011;9315;52.624;13.544;2024-02-21T07:40:06;32.63;;;10.13;;
18376;SDS011;9315;52.624;13.544;2024-02-21T07:42:43;24.80;;;9.80;;
18376;SDS011;9315;52.624;13.544;2024-02-21T07:45:18;20.90;;;7.90;;
18376;SDS011;9315;52.624;13.544;2024-02-21T07:47:50;22.90;;;10.17;;
18376;SDS011;9315;52.624;13.544;2024-02-21T07:50:18;20.47;;;8.90;;
18376;SDS011;9315;52.624;13.544;2024-02-21T07:52:48;19.80;;;9.23;;
18376;SDS011;9315;52.624;13.544;2024-02-21T07:55:16;29.67;;;9.23;;
18376;SDS011;9315;52.624;13.544;2024-02-21T07:57:43;25.50;;;10.03;;
18376;SDS011;9315;52.624;13.544;2024-02-21T08:00:11;22.07;;;9.67;;
18376;SDS011;9315;52.624;13.544;2024-02-21T08:02:47;20.47;;;8.53;;
18376;SDS011;9315;52.624;13.544;2024-02-21T08:05:16;22.00;;;8.80;;
18376;SDS011;9315;52.624;13.544;2024-02-21T08:07:44;23.50;;;8.83;;
18376;SDS011;9315;52.624;13.544;2024-02-21T08:10:12;26.13;;;8.90;;
18376;SDS011;9315;52.624;13.544;2024-02-21T08:12:39;24.03;;;8.70;;
18376;SDS011;9315;52.624;13.544;2024-02-21T08:15:07;29.23;;;9.17;;
18376;SDS011;9315;52.624;13.544;2024-02-21T08:17:42;23.43;;;8.70;;
18376;SDS011;9315;52.624;13.544;2024-02-21T08:20:10;20.73;;;7.53;;
18376;SDS011;9315;52.624;13.544;2024-02-21T08:22:38;24.63;;;8.63;;
18376;SDS011;9315;52.624;13.544;2024-02-21T08:25:05;19.30;;;8.27;;
18376;SDS011;9315;52.624;13.544;2024-02-21T08:27:33;22.33;;;8.83;;
18376;SDS011;9315;52.624;13.544;2024-02-21T08:30:01;22.27;;;8.30;;
18376;SDS011;9315;52.624;13.544;2024-02-21T08:32:30;23.17;;;8.13;;
18376;SDS011;9315;52.624;13.544;2024-02-21T08:34:58;24.70;;;8.37;;
18376;SDS011;9315;52.624;13.544;2024-02-21T08:37:27;19.73;;;7.30;;
18376;SDS011;9315;52.624;13.544;2024-02-21T08:39:55;20.17;;;8.20;;
18376;SDS011;9315;52.624;13.544;2024-02-21T08:42:22;19.80;;;7.87;;
18376;SDS011;9315;52.624;13.544;2024-02-21T08:44:50;20.07;;;8.27;;
18376;SDS011;9315;52.624;13.544;2024-02-21T08:47:17;21.23;;;7.77;;
18376;SDS011;9315;52.624;13.544;2024-02-21T08:49:45;14.43;;;7.30;;
18376;SDS011;9315;52.624;13.544;2024-02-21T08:52:12;23.87;;;7.73;;
18376;SDS011;9315;52.624;13.544;2024-02-21T08:54:40;19.80;;;8.73;;
18376;SDS011;9315;52.624;13.544;2024-02-21T08:57:09;26.70;;;9.03;;
18376;SDS011;9315;52.624;13.544;2024-02-21T08:59:37;21.33;;;8.43;;
18376;SDS011;9315;52.624;13.544;2024-02-21T09:02:04;20.17;;;7.90;;
18376;SDS011;9315;52.624;13.544;2024-02-21T09:04:33;22.97;;;8.47;;
18376;SDS011;9315;52.624;13.544;2024-02-21T09:07:01;22.60;;;9.07;;
18376;SDS011;9315;52.624;13.544;2024-02-21T09:09:29;20.53;;;8.80;;
18376;SDS011;9315;52.624;13.544;2024-02-21T09:11:59;18.87;;;8.93;;
18376;SDS011;9315;52.624;13.544;2024-02-21T09:14:32;22.23;;;8.53;;
18376;SDS011;9315;52.624;13.544;2024-02-21T09:17:01;23.03;;;8.97;;
18376;SDS011;9315;52.624;13.544;2024-02-21T09:19:29;20.53;;;9.00;;
18376;SDS011;9315;52.624;13.544;2024-02-21T09:22:00;16.70;;;8.90;;
18376;SDS011;9315;52.624;13.544;2024-02-21T09:24:28;21.20;;;8.70;;
18376;SDS011;9315;52.624;13.544;2024-02-21T09:26:56;19.47;;;9.50;;
18376;SDS011;9315;52.624;13.544;2024-02-21T09:29:23;22.40;;;9.60;;
18376;SDS011;9315;52.624;13.544;2024-02-21T09:31:53;21.00;;;9.00;;
18376;SDS011;9315;52.624;13.544;2024-02-21T09:34:21;19.03;;;9.30;;
18376;SDS011;9315;52.624;13.544;2024-02-21T09:36:49;21.47;;;9.00;;
18376;SDS011;9315;52.624;13.544;2024-02-21T09:39:16;20.30;;;8.57;;
18376;SDS011;9315;52.624;13.544;2024-02-21T09:41:48;23.30;;;9.03;;
18376;SDS011;9315;52.624;13.544;2024-02-21T09:44:25;23.00;;;9.77;;
18376;SDS011;9315;52.624;13.544;2024-02-21T09:47:07;21.63;;;9.80;;
18376;SDS011;9315;52.624;13.544;2024-02-21T09:49:40;23.47;;;9.40;;
18376;SDS011;9315;52.624;13.544;2024-02-21T09:52:09;25.80;;;9.63;;
18376;SDS011;9315;52.624;13.544;2024-02-21T09:54:41;19.27;;;9.37;;
18376;SDS011;9315;52.624;13.544;2024-02-21T09:57:13;24.43;;;9.47;;
18376;SDS011;9315;52.624;13.544;2024-02-21T09:59:40;23.80;;;10.10;;
18376;SDS011;9315;52.624;13.544;2024-02-21T10:02:12;22.60;;;9.77;;
18376;SDS011;9315;52.624;13.544;2024-02-21T10:04:40;23.37;;;9.47;;
18376;SDS011;9315;52.624;13.544;2024-02-21T10:07:08;22.40;;;9.23;;
18376;SDS011;9315;52.624;13.544;2024-02-21T10:09:35;20.23;;;9.23;;
18376;SDS011;9315;52.624;13.544;2024-02-21T10:12:09;23.43;;;10.17;;
18376;SDS011;9315;52.624;13.544;2024-02-21T10:14:40;19.03;;;10.23;;
18376;SDS011;9315;52.624;13.544;2024-02-21T10:17:08;22.23;;;9.33;;
18376;SDS011;9315;52.624;13.544;2024-02-21T10:19:45;21.17;;;10.03;;
18376;SDS011;9315;52.624;13.544;2024-02-21T10:22:14;23.07;;;8.83;;
18376;SDS011;9315;52.624;13.544;2024-02-21T10:24:44;21.90;;;9.63;;
18376;SDS011;9315;52.624;13.544;2024-02-21T10:27:12;20.97;;;9.37;;
18376;SDS011;9315;52.624;13.544;2024-02-21T10:29:40;18.97;;;9.60;;
18376;SDS011;9315;52.624;13.544;2024-02-21T10:32:10;21.43;;;9.60;;
18376;SDS011;9315;52.624;13.544;2024-02-21T10:34:41;19.70;;;8.97;;
18376;SDS011;9315;52.624;13.544;2024-02-21T10:37:10;17.37;;;8.57;;
18376;SDS011;9315;52.624;13.544;2024-02-21T10:39:39;20.50;;;9.47;;
18376;SDS011;9315;52.624;13.544;2024-02-21T10:42:10;18.07;;;8.17;;
18376;SDS011;9315;52.624;13.544;2024-02-21T10:44:39;19.03;;;9.20;;
18376;SDS011;9315;52.624;13.544;2024-02-21T10:47:09;19.13;;;8.53;;
18376;SDS011;9315;52.624;13.544;2024-02-21T10:49:44;17.97;;;8.27;;
18376;SDS011;9315;52.624;13.544;2024-02-21T10:52:17;17.73;;;8.50;;
18376;SDS011;9315;52.624;13.544;2024-02-21T10:55:26;18.67;;;8.80;;
18376;SDS011;9315;52.624;13.544;2024-02-21T10:58:05;17.37;;;8.10;;
18376;SDS011;9315;52.624;13.544;2024-02-21T11:00:34;16.93;;;8.13;;
18376;SDS011;9315;52.624;13.544;2024-02-21T11:03:03;14.77;;;8.03;;
18376;SDS011;9315;52.624;13.544;2024-02-21T11:05:32;15.63;;;7.60;;
18376;SDS011;9315;52.624;13.544;2024-02-21T11:08:00;21.57;;;8.07;;
18376;SDS011;9315;52.624;13.544;2024-02-21T11:10:32;15.47;;;8.50;;
18376;SDS011;9315;52.624;13.544;2024-02-21T11:13:07;19.70;;;7.43;;
18376;SDS011;9315;52.624;13.544;2024-02-21T11:15:36;19.30;;;8.33;;
18376;SDS011;9315;52.624;13.544;2024-02-21T11:18:05;13.07;;;6.83;;
18376;SDS011;9315;52.624;13.544;2024-02-21T11:20:34;17.83;;;7.60;;
18376;SDS011;9315;52.624;13.544;2024-02-21T11:23:03;13.43;;;7.90;;
18376;SDS011;9315;52.624;13.544;2024-02-21T11:25:31;18.07;;;8.30;;
18376;SDS011;9315;52.624;13.544;2024-02-21T11:28:01;19.40;;;7.20;;
18376;SDS011;9315;52.624;13.544;2024-02-21T11:30:31;15.87;;;7.17;;
18376;SDS011;9315;52.624;13.544;2024-02-21T11:33:02;16.77;;;6.90;;
18376;SDS011;9315;52.624;13.544;2024-02-21T11:35:33;16.57;;;6.83;;
18376;SDS011;9315;52.624;13.544;2024-02-21T11:38:09;13.00;;;7.03;;
18376;SDS011;9315;52.624;13.544;2024-02-21T11:40:44;13.27;;;6.47;;
18376;SDS011;9315;52.624;13.544;2024-02-21T11:43:14;15.27;;;6.87;;
18376;SDS011;9315;52.624;13.544;2024-02-21T11:45:43;16.27;;;6.87;;
18376;SDS011;9315;52.624;13.544;2024-02-21T11:48:10;10.70;;;6.17;;
18376;SDS011;9315;52.624;13.544;2024-02-21T11:50:38;9.53;;;5.80;;
18376;SDS011;9315;52.624;13.544;2024-02-21T11:53:06;14.57;;;6.23;;
18376;SDS011;9315;52.624;13.544;2024-02-21T11:55:34;15.23;;;6.67;;
18376;SDS011;9315;52.624;13.544;2024-02-21T11:58:01;11.57;;;6.17;;
18376;SDS011;9315;52.624;13.544;2024-02-21T12:00:29;11.00;;;5.83;;
18376;SDS011;9315;52.624;13.544;2024-02-21T12:02:58;10.87;;;5.87;;
18376;SDS011;9315;52.624;13.544;2024-02-21T12:05:29;11.63;;;5.13;;
18376;SDS011;9315;52.624;13.544;2024-02-21T12:07:57;19.27;;;5.50;;
18376;SDS011;9315;52.624;13.544;2024-02-21T12:10:28;9.10;;;5.10;;
18376;SDS011;9315;52.624;13.544;2024-02-21T12:13:06;12.77;;;5.10;;
18376;SDS011;9315;52.624;13.544;2024-02-21T12:15:40;10.27;;;5.27;;
18376;SDS011;9315;52.624;13.544;2024-02-21T12:18:07;11.47;;;4.60;;
18376;SDS011;9315;52.624;13.544;2024-02-21T12:20:37;7.80;;;4.53;;
18376;SDS011;9315;52.624;13.544;2024-02-21T12:23:08;9.73;;;5.03;;
18376;SDS011;9315;52.624;13.544;2024-02-21T12:25:38;11.37;;;4.60;;
18376;SDS011;9315;52.624;13.544;2024-02-21T12:28:06;10.53;;;4.63;;
18376;SDS011;9315;52.624;13.544;2024-02-21T12:30:34;9.63;;;4.23;;
18376;SDS011;9315;52.624;13.544;2024-02-21T12:33:05;6.67;;;4.30;;
18376;SDS011;9315;52.624;13.544;2024-02-21T12:35:33;12.10;;;4.80;;
18376;SDS011;9315;52.624;13.544;2024-02-21T12:38:01;8.77;;;4.40;;
18376;SDS011;9315;52.624;13.544;2024-02-21T12:40:28;9.83;;;5.33;;
18376;SDS011;9315;52.624;13.544;2024-02-21T12:43:00;9.93;;;4.50;;
18376;SDS011;9315;52.624;13.544;2024-02-21T12:45:29;9.13;;;4.10;;
18376;SDS011;9315;52.624;13.544;2024-02-21T12:47:57;8.30;;;3.87;;
18376;SDS011;9315;52.624;13.544;2024-02-21T12:50:25;10.67;;;3.87;;
18376;SDS011;9315;52.624;13.544;2024-02-21T12:52:52;5.80;;;3.17;;
18376;SDS011;9315;52.624;13.544;2024-02-21T12:55:20;6.73;;;3.43;;
18376;SDS011;9315;52.624;13.544;2024-02-21T12:57:47;6.63;;;3.27;;
18376;SDS011;9315;52.624;13.544;2024-02-21T13:00:15;4.97;;;3.00;;
18376;SDS011;9315;52.624;13.544;2024-02-21T13:02:43;5.37;;;2.90;;
18376;SDS011;9315;52.624;13.544;2024-02-21T13:05:13;5.73;;;2.63;;
18376;SDS011;9315;52.624;13.544;2024-02-21T13:07:40;19.40;;;3.13;;
18376;SDS011;9315;52.624;13.544;2024-02-21T13:10:08;9.20;;;2.40;;
18376;SDS011;9315;52.624;13.544;2024-02-21T13:12:35;8.83;;;2.37;;
18376;SDS011;9315;52.624;13.544;2024-02-21T13:15:03;9.27;;;2.20;;
18376;SDS011;9315;52.624;13.544;2024-02-21T13:17:31;5.87;;;2.30;;
18376;SDS011;9315;52.624;13.544;2024-02-21T13:20:00;3.97;;;2.00;;
18376;SDS011;9315;52.624;13.544;2024-02-21T13:22:28;9.60;;;2.73;;
18376;SDS011;9315;52.624;13.544;2024-02-21T13:24:55;6.90;;;2.50;;
18376;SDS011;9315;52.624;13.544;2024-02-21T13:27:24;6.30;;;2.30;;
18376;SDS011;9315;52.624;13.544;2024-02-21T13:29:51;5.67;;;2.33;;
18376;SDS011;9315;52.624;13.544;2024-02-21T13:32:19;4.23;;;2.43;;
18376;SDS011;9315;52.624;13.544;2024-02-21T13:34:47;6.33;;;2.47;;
18376;SDS011;9315;52.624;13.544;2024-02-21T13:37:15;5.00;;;2.73;;
18376;SDS011;9315;52.624;13.544;2024-02-21T13:39:42;6.03;;;2.43;;
18376;SDS011;9315;52.624;13.544;2024-02-21T13:42:10;5.03;;;2.80;;
18376;SDS011;9315;52.624;13.544;2024-02-21T13:44:38;8.63;;;2.90;;
18376;SDS011;9315;52.624;13.544;2024-02-21T13:47:06;7.13;;;2.67;;
18376;SDS011;9315;52.624;13.544;2024-02-21T13:49:35;10.23;;;2.80;;
18376;SDS011;9315;52.624;13.544;2024-02-21T13:52:04;6.10;;;2.80;;
18376;SDS011;9315;52.624;13.544;2024-02-21T13:54:32;9.10;;;3.60;;
18376;SDS011;9315;52.624;13.544;2024-02-21T13:56:59;6.17;;;2.83;;
18376;SDS011;9315;52.624;13.544;2024-02-21T13:59:28;7.37;;;3.13;;
18376;SDS011;9315;52.624;13.544;2024-02-21T14:01:56;9.10;;;3.60;;
18376;SDS011;9315;52.624;13.544;2024-02-21T14:04:25;9.27;;;3.50;;
18376;SDS011;9315;52.624;13.544;2024-02-21T14:06:54;9.93;;;3.90;;
18376;SDS011;9315;52.624;13.544;2024-02-21T14:09:21;11.10;;;4.00;;
18376;SDS011;9315;52.624;13.544;2024-02-21T14:11:48;7.17;;;3.60;;
18376;SDS011;9315;52.624;13.544;2024-02-21T14:14:16;8.60;;;3.90;;
18376;SDS011;9315;52.624;13.544;2024-02-21T14:16:44;8.93;;;3.43;;
18376;SDS011;9315;52.624;13.544;2024-02-21T14:19:14;11.67;;;4.13;;
18376;SDS011;9315;52.624;13.544;2024-02-21T14:21:42;9.67;;;3.23;;
18376;SDS011;9315;52.624;13.544;2024-02-21T14:24:11;6.63;;;3.20;;
18376;SDS011;9315;52.624;13.544;2024-02-21T14:26:39;11.57;;;3.13;;
18376;SDS011;9315;52.624;13.544;2024-02-21T14:29:07;7.43;;;3.60;;
18376;SDS011;9315;52.624;13.544;2024-02-21T14:31:35;6.83;;;3.23;;
18376;SDS011;9315;52.624;13.544;2024-02-21T14:34:02;11.77;;;3.30;;
18376;SDS011;9315;52.624;13.544;2024-02-21T14:36:30;9.13;;;3.33;;
18376;SDS011;9315;52.624;13.544;2024-02-21T14:38:59;11.60;;;3.60;;
18376;SDS011;9315;52.624;13.544;2024-02-21T14:41:26;6.77;;;3.47;;
18376;SDS011;9315;52.624;13.544;2024-02-21T14:43:55;8.30;;;3.40;;
18376;SDS011;9315;52.624;13.544;2024-02-21T14:46:30;7.27;;;3.37;;
18376;SDS011;9315;52.624;13.544;2024-02-21T14:48:58;10.67;;;3.40;;